LOWG/GRZ METAR and TAF weather

Enter ICAO airport designator
Station Type Date Time Source
LOWG METAR 2024/05/28 22:20 UTC NOAA

LOWG 282220Z AUTO 31005KT 250V340 9999 -RA FEW060 BKN070 14/08 Q1018


Station Type Date Time Source
LOWG Decoded METAR 2024/05/28 22:20 UTC NOAA

Graz-Thalerhof-Flughafen, Austria (LOWG) 47-00N 015-26E 347M
May 28, 2024 - 06:20 PM EDT / 2024.05.28 2220 UTC
Wind: from the NW (310 degrees) at 6 MPH (5 KT) (direction variable):0
Visibility: greater than 7 mile(s):0
Sky conditions: mostly cloudy
Weather: light rain
Temperature: 57 F (14 C)
Dew Point: 46 F (8 C)
Relative Humidity: 67%
Pressure (altimeter): 30.06 in. Hg (1018 hPa)
ob: LOWG 282220Z AUTO 31005KT 250V340 9999 -RA FEW060 BKN070 14/08 Q1018
cycle: 22

Station Type Date Time Source
LOWG TAF 2024/05/28 18:21 UTC NOAA